createdAt,value
2017-11-20T00:00:03.250Z,2.58
2017-11-20T00:01:03.249Z,2.59
2017-11-20T00:02:02.976Z,2.58
2017-11-20T00:03:03.236Z,2.69
2017-11-20T00:04:03.469Z,2.73
2017-11-20T00:05:03.200Z,2.62
2017-11-20T00:06:03.445Z,2.7
2017-11-20T00:07:03.440Z,2.7
2017-11-20T00:08:03.430Z,2.61
2017-11-20T00:09:03.419Z,2.59
2017-11-20T00:10:03.430Z,2.64
2017-11-20T00:11:03.400Z,2.57
2017-11-20T00:12:03.387Z,2.44
2017-11-20T00:13:03.377Z,2.52
2017-11-20T00:14:03.370Z,2.54
2017-11-20T00:15:03.457Z,2.51
2017-11-20T00:16:03.346Z,2.5
2017-11-20T00:17:03.077Z,2.51
2017-11-20T00:18:03.437Z,2.58
2017-11-20T00:19:03.079Z,2.61
2017-11-20T00:20:03.055Z,2.62
2017-11-20T00:21:03.309Z,2.62
2017-11-20T00:22:03.026Z,2.57
2017-11-20T00:23:03.034Z,2.52
2017-11-20T00:24:03.106Z,2.62
2017-11-20T00:25:03.010Z,2.59
2017-11-20T00:26:03.241Z,2.64
2017-11-20T00:27:03.235Z,2.47
2017-11-20T00:28:03.230Z,2.58
2017-11-20T00:29:03.210Z,2.54
2017-11-20T00:30:03.403Z,2.59
2017-11-20T00:31:03.207Z,2.59
2017-11-20T00:32:02.922Z,2.55
2017-11-20T00:33:02.924Z,2.54
2017-11-20T00:34:02.903Z,2.5
2017-11-20T00:35:02.898Z,2.43
2017-11-20T00:36:03.140Z,2.51
2017-11-20T00:37:03.135Z,2.51
2017-11-20T00:38:03.126Z,2.47
2017-11-20T00:39:02.850Z,2.46
2017-11-20T00:40:02.580Z,2.54
2017-11-20T00:41:02.829Z,2.46
2017-11-20T00:42:03.076Z,2.52
2017-11-20T00:43:02.815Z,2.43
2017-11-20T00:44:03.055Z,2.47
2017-11-20T00:45:03.051Z,2.5
2017-11-20T00:46:03.141Z,2.51
2017-11-20T00:47:03.030Z,2.59
2017-11-20T00:48:02.759Z,2.5
2017-11-20T00:49:02.488Z,2.59
2017-11-20T00:50:02.734Z,2.58
2017-11-20T00:51:02.984Z,2.57
2017-11-20T00:52:02.990Z,2.61
2017-11-20T00:53:02.968Z,2.43
2017-11-20T00:54:02.950Z,2.4
2017-11-20T00:55:02.945Z,2.58
2017-11-20T00:56:02.928Z,2.46
2017-11-20T00:57:02.922Z,2.34
2017-11-20T00:58:02.910Z,2.39
2017-11-20T00:59:02.901Z,2.34
2017-11-20T01:00:02.913Z,2.3
2017-11-20T01:01:02.876Z,2.34
2017-11-20T01:02:02.872Z,2.28
2017-11-20T01:03:02.602Z,2.23
2017-11-20T01:04:02.606Z,2.37
2017-11-20T01:05:02.586Z,2.33
2017-11-20T01:06:02.314Z,2.28
2017-11-20T01:07:02.819Z,2.34
2017-11-20T01:08:02.805Z,2.39
2017-11-20T01:09:02.535Z,2.37
2017-11-20T01:10:02.791Z,2.34
2017-11-20T01:11:02.517Z,2.34
2017-11-20T01:12:02.767Z,2.46
2017-11-20T01:13:02.497Z,2.46
2017-11-20T01:14:02.486Z,2.44
2017-11-20T01:15:02.474Z,2.51
2017-11-20T01:16:02.761Z,2.51
2017-11-20T01:17:02.726Z,2.51
2017-11-20T01:18:02.546Z,2.44
2017-11-20T01:19:02.433Z,2.58
2017-11-20T01:20:02.686Z,2.54
2017-11-20T01:21:02.412Z,2.46
2017-11-20T01:22:02.406Z,2.47
2017-11-20T01:23:02.752Z,2.5
2017-11-20T01:24:02.486Z,2.33
2017-11-20T01:25:02.112Z,2.33
2017-11-20T01:26:02.633Z,2.39
2017-11-20T01:27:02.610Z,2.32
2017-11-20T01:28:02.347Z,2.33
2017-11-20T01:29:02.327Z,2.3
2017-11-20T01:30:02.318Z,2.19
2017-11-20T01:31:02.311Z,2.16
2017-11-20T01:32:02.563Z,2.25
2017-11-20T01:33:02.297Z,2.16
2017-11-20T01:34:02.552Z,2.18
2017-11-20T01:35:02.525Z,2.19
2017-11-20T01:36:02.515Z,2.18
2017-11-20T01:37:02.507Z,2.22
2017-11-20T01:38:02.239Z,2.22
2017-11-20T01:39:02.484Z,2.19
2017-11-20T01:40:02.674Z,2.21
2017-11-20T01:41:02.205Z,2.18
2017-11-20T01:42:02.452Z,2.25
2017-11-20T01:43:02.181Z,2.19
2017-11-20T01:44:02.429Z,2.18
2017-11-20T01:45:02.423Z,2.15
2017-11-20T01:46:02.417Z,2.18
2017-11-20T01:47:02.407Z,2.16
2017-11-20T01:48:02.143Z,2.1
2017-11-20T01:49:02.389Z,2.18
2017-11-20T01:50:02.377Z,2.14
2017-11-20T01:51:02.361Z,2.04
2017-11-20T01:52:02.347Z,2.03
2017-11-20T01:53:02.346Z,2.07
2017-11-20T01:54:02.337Z,2.01
2017-11-20T01:55:02.415Z,2.07
2017-11-20T01:56:02.303Z,2.04
2017-11-20T01:57:02.301Z,2.05
2017-11-20T01:58:02.291Z,2.05
2017-11-20T01:59:02.292Z,2.05
2017-11-20T02:00:02.019Z,2.08
2017-11-20T02:01:02.260Z,2.07
2017-11-20T02:02:01.989Z,2.01
2017-11-20T02:03:01.973Z,2.14
2017-11-20T02:04:02.344Z,2.07
2017-11-20T02:05:02.220Z,2.03
2017-11-20T02:06:01.950Z,2.1
2017-11-20T02:07:02.201Z,2.05
2017-11-20T02:08:01.933Z,2.04
2017-11-20T02:09:02.166Z,2.14
2017-11-20T02:10:02.270Z,2.15
2017-11-20T02:11:01.991Z,2.07
2017-11-20T02:12:02.141Z,2.08
2017-11-20T02:13:01.868Z,2.14
2017-11-20T02:14:02.117Z,2.07
2017-11-20T02:15:01.590Z,2.08
2017-11-20T02:16:02.205Z,2.03
2017-11-20T02:17:02.092Z,2.08
2017-11-20T02:18:01.559Z,2.07
2017-11-20T02:19:02.072Z,2.01
2017-11-20T02:20:02.075Z,1.89
2017-11-20T02:21:02.143Z,1.97
2017-11-20T02:22:02.038Z,2.08
2017-11-20T02:23:01.792Z,2.08
2017-11-20T02:24:02.009Z,2
2017-11-20T02:25:02.003Z,2.03
2017-11-20T02:26:01.992Z,2.04
2017-11-20T02:27:01.993Z,2.04
2017-11-20T02:28:02.003Z,2.12
2017-11-20T02:29:01.963Z,2.08
2017-11-20T02:30:01.697Z,1.97
2017-11-20T02:31:01.682Z,2.01
2017-11-20T02:32:01.674Z,1.89
2017-11-20T02:33:01.921Z,1.82
2017-11-20T02:34:01.910Z,1.84
2017-11-20T02:35:01.895Z,1.82
2017-11-20T02:36:01.902Z,1.81
2017-11-20T02:37:01.884Z,1.75
2017-11-20T02:38:01.883Z,1.78
2017-11-20T02:39:01.595Z,1.79
2017-11-20T02:40:01.587Z,1.81
2017-11-20T02:41:01.581Z,1.67
2017-11-20T02:42:01.311Z,1.7
2017-11-20T02:43:01.817Z,1.71
2017-11-20T02:44:01.548Z,1.61
2017-11-20T02:45:01.540Z,1.71
2017-11-20T02:46:01.266Z,1.74
2017-11-20T02:47:01.766Z,1.75
2017-11-20T02:48:01.868Z,1.74
2017-11-20T02:49:01.783Z,1.82
2017-11-20T02:50:01.743Z,1.84
2017-11-20T02:51:01.741Z,1.95
2017-11-20T02:52:01.717Z,1.88
2017-11-20T02:53:01.785Z,1.97
2017-11-20T02:54:01.731Z,2.03
2017-11-20T02:55:01.694Z,2.1
2017-11-20T02:56:01.416Z,2
2017-11-20T02:57:01.666Z,2.14
2017-11-20T02:58:01.403Z,2.14
2017-11-20T02:59:01.743Z,2.05
2017-11-20T03:00:01.376Z,2.05
2017-11-20T03:01:01.366Z,2.03
2017-11-20T03:02:01.615Z,2.08
2017-11-20T03:03:01.089Z,2
2017-11-20T03:04:01.336Z,1.89
2017-11-20T03:05:01.582Z,1.82
2017-11-20T03:06:01.158Z,1.84
2017-11-20T03:07:01.563Z,1.92
2017-11-20T03:08:01.290Z,2
2017-11-20T03:09:01.558Z,2.01
2017-11-20T03:10:01.541Z,2.03
2017-11-20T03:11:01.622Z,2.04
2017-11-20T03:12:01.513Z,2.04
2017-11-20T03:13:01.500Z,2.14
2017-11-20T03:14:01.228Z,2.18
2017-11-20T03:15:01.474Z,2.18
2017-11-20T03:16:01.210Z,2.18
2017-11-20T03:17:01.464Z,2.22
2017-11-20T03:18:01.187Z,2.3
2017-11-20T03:19:01.432Z,2.33
2017-11-20T03:20:01.161Z,2.28
2017-11-20T03:21:01.411Z,2.33
2017-11-20T03:22:01.413Z,2.18
2017-11-20T03:23:01.138Z,2.19
2017-11-20T03:24:01.122Z,2.12
2017-11-20T03:25:01.111Z,2.12
2017-11-20T03:26:01.104Z,2.1
2017-11-20T03:27:01.456Z,2
2017-11-20T03:28:01.076Z,2.14
2017-11-20T03:29:01.330Z,2.08
2017-11-20T03:30:01.062Z,2.16
2017-11-20T03:31:01.320Z,2.15
2017-11-20T03:32:01.048Z,2.23
2017-11-20T03:33:00.772Z,2.3
2017-11-20T03:34:01.017Z,2.28
2017-11-20T03:35:01.296Z,2.39
2017-11-20T03:36:01.255Z,2.4
2017-11-20T03:37:01.345Z,2.34
2017-11-20T03:38:00.982Z,2.37
2017-11-20T03:39:01.323Z,2.44
2017-11-20T03:40:00.965Z,2.46
2017-11-20T03:41:01.207Z,2.44
2017-11-20T03:42:00.935Z,2.54
2017-11-20T03:43:00.923Z,2.51
2017-11-20T03:44:00.915Z,2.46
2017-11-20T03:45:01.157Z,2.41
2017-11-20T03:46:00.898Z,2.5
2017-11-20T03:47:00.884Z,2.34
2017-11-20T03:48:00.975Z,2.46
2017-11-20T03:49:00.865Z,2.33
2017-11-20T03:50:00.590Z,2.33
2017-11-20T03:51:01.093Z,2.34
2017-11-20T03:52:01.100Z,2.37
2017-11-20T03:53:00.924Z,2.37
2017-11-20T03:54:00.908Z,2.39
2017-11-20T03:55:01.059Z,2.32
2017-11-20T03:56:00.527Z,2.33
2017-11-20T03:57:00.778Z,2.44
2017-11-20T03:58:01.025Z,2.44
2017-11-20T03:59:01.017Z,2.44
2017-11-20T04:00:01.008Z,2.43
2017-11-20T04:01:00.733Z,2.51
2017-11-20T04:02:00.999Z,2.44
2017-11-20T04:03:00.722Z,2.44
2017-11-20T04:04:00.967Z,2.59
2017-11-20T04:05:00.701Z,2.61
2017-11-20T04:06:00.939Z,2.59
2017-11-20T04:07:00.422Z,2.44
2017-11-20T04:08:00.934Z,2.61
2017-11-20T04:09:00.914Z,2.61
2017-11-20T04:10:00.755Z,2.59
2017-11-20T04:11:00.885Z,2.59
2017-11-20T04:12:00.614Z,2.51
2017-11-20T04:13:00.601Z,2.46
2017-11-20T04:14:00.335Z,2.41
2017-11-20T04:15:00.842Z,2.5
2017-11-20T04:16:00.576Z,2.37
2017-11-20T04:17:00.661Z,2.36
2017-11-20T04:18:00.557Z,2.41
2017-11-20T04:19:00.804Z,2.39
2017-11-20T04:20:00.896Z,2.43
2017-11-20T04:21:00.782Z,2.44
2017-11-20T04:22:00.771Z,2.44
2017-11-20T04:23:00.799Z,2.5
2017-11-20T04:24:00.755Z,2.44
2017-11-20T04:25:00.490Z,2.52
2017-11-20T04:26:00.215Z,2.54
2017-11-20T04:27:00.458Z,2.64
2017-11-20T04:28:00.446Z,2.51
2017-11-20T04:29:00.436Z,2.55
2017-11-20T04:30:00.428Z,2.57
2017-11-20T04:31:00.674Z,2.5
2017-11-20T04:32:00.504Z,2.57
2017-11-20T04:33:00.397Z,2.52
2017-11-20T04:34:00.642Z,2.47
2017-11-20T04:35:00.373Z,2.51
2017-11-20T04:36:00.360Z,2.54
2017-11-20T04:37:00.349Z,2.5
2017-11-20T04:38:00.608Z,2.5
2017-11-20T04:39:00.330Z,2.47
2017-11-20T04:40:00.582Z,2.46
2017-11-20T04:41:00.051Z,2.51
2017-11-20T04:42:00.581Z,2.64
2017-11-20T04:43:00.299Z,2.58
2017-11-20T04:44:00.535Z,2.58
2017-11-20T04:45:00.535Z,2.61
2017-11-20T04:46:00.257Z,2.52
2017-11-20T04:47:00.250Z,2.65
2017-11-20T04:48:00.494Z,2.55
2017-11-20T04:49:00.482Z,2.59
2017-11-20T04:50:00.476Z,2.64
2017-11-20T04:50:59.943Z,2.52
2017-11-20T04:52:00.471Z,2.58
2017-11-20T04:53:00.185Z,2.55
2017-11-20T04:54:00.178Z,2.58
2017-11-20T04:55:00.260Z,2.55
2017-11-20T04:56:00.415Z,2.54
2017-11-20T04:56:59.893Z,2.54
2017-11-20T04:58:00.131Z,2.59
2017-11-20T04:59:00.382Z,2.62
2017-11-20T05:00:00.109Z,2.54
2017-11-20T05:00:59.839Z,2.62
2017-11-20T05:02:00.343Z,2.52
2017-11-20T05:03:00.332Z,2.55
2017-11-20T05:04:00.066Z,2.61
2017-11-20T05:05:00.414Z,2.62
2017-11-20T05:06:00.046Z,2.64
2017-11-20T05:07:00.297Z,2.65
2017-11-20T05:08:00.024Z,2.52
2017-11-20T05:09:00.276Z,2.62
2017-11-20T05:10:00.265Z,2.68
2017-11-20T05:11:00.356Z,2.68
2017-11-20T05:11:59.724Z,2.7
2017-11-20T05:12:59.982Z,2.65
2017-11-20T05:13:59.705Z,2.77
2017-11-20T05:15:00.214Z,2.77
2017-11-20T05:15:59.946Z,2.79
2017-11-20T05:17:00.191Z,2.94
2017-11-20T05:18:00.180Z,2.91
2017-11-20T05:18:59.910Z,2.8
2017-11-20T05:19:59.900Z,2.94
2017-11-20T05:21:00.343Z,2.95
2017-11-20T05:21:59.884Z,3.05
2017-11-20T05:22:59.869Z,2.97
2017-11-20T05:23:59.853Z,2.98
2017-11-20T05:24:59.850Z,3.05
2017-11-20T05:26:00.185Z,3.03
2017-11-20T05:26:59.822Z,3.03
2017-11-20T05:28:00.068Z,3
2017-11-20T05:28:59.813Z,3
2017-11-20T05:30:00.051Z,3.03
2017-11-20T05:30:59.789Z,3.01
2017-11-20T05:31:59.775Z,3.06
2017-11-20T05:32:59.761Z,2.95
2017-11-20T05:34:00.013Z,2.9
2017-11-20T05:35:00.002Z,2.82
2017-11-20T05:35:59.573Z,2.8
2017-11-20T05:36:59.973Z,2.8
2017-11-20T05:37:59.967Z,2.79
2017-11-20T05:38:59.699Z,2.8
2017-11-20T05:39:59.687Z,2.79
2017-11-20T05:40:59.931Z,2.77
2017-11-20T05:41:59.927Z,2.76
2017-11-20T05:42:59.910Z,2.79
2017-11-20T05:44:00.001Z,2.87
2017-11-20T05:44:59.377Z,2.87
2017-11-20T05:45:59.723Z,2.88
2017-11-20T05:46:59.613Z,2.87
2017-11-20T05:47:59.866Z,2.88
2017-11-20T05:48:59.858Z,2.91
2017-11-20T05:49:59.841Z,2.93
2017-11-20T05:50:59.928Z,2.93
2017-11-20T05:51:59.917Z,2.88
2017-11-20T05:52:59.815Z,2.95
2017-11-20T05:53:59.537Z,2.95
2017-11-20T05:54:59.782Z,3.01
2017-11-20T05:55:59.782Z,3
2017-11-20T05:56:59.767Z,3.09
2017-11-20T05:57:59.496Z,2.98
2017-11-20T05:58:59.749Z,2.93
2017-11-20T05:59:59.731Z,3.01
2017-11-20T06:00:59.459Z,3.05
2017-11-20T06:01:59.744Z,3
2017-11-20T06:02:59.715Z,2.98
2017-11-20T06:03:59.688Z,3.01
2017-11-20T06:04:59.419Z,3.01
2017-11-20T06:05:59.415Z,2.95
2017-11-20T06:06:59.676Z,3.01
2017-11-20T06:07:59.388Z,3
2017-11-20T06:08:59.389Z,2.95
2017-11-20T06:09:59.360Z,2.98
2017-11-20T06:10:59.354Z,3.08
2017-11-20T06:11:59.604Z,3.05
2017-11-20T06:12:59.335Z,3.06
2017-11-20T06:13:59.579Z,3.12
2017-11-20T06:14:59.572Z,3.03
2017-11-20T06:15:59.316Z,3.12
2017-11-20T06:16:59.395Z,3.05
2017-11-20T06:17:59.539Z,2.93
2017-11-20T06:18:59.273Z,3.08
2017-11-20T06:19:59.516Z,3.11
2017-11-20T06:20:59.256Z,3.06
2017-11-20T06:21:58.980Z,3.18
2017-11-20T06:22:59.229Z,3.13
2017-11-20T06:23:59.474Z,3.01
2017-11-20T06:24:59.485Z,3.05
2017-11-20T06:25:59.451Z,2.97
2017-11-20T06:26:59.293Z,2.93
2017-11-20T06:27:59.176Z,2.87
2017-11-20T06:28:59.428Z,2.8
2017-11-20T06:29:59.168Z,2.76
2017-11-20T06:30:58.891Z,2.64
2017-11-20T06:31:59.149Z,2.7
2017-11-20T06:32:59.487Z,2.62
2017-11-20T06:33:59.374Z,2.68
2017-11-20T06:34:59.104Z,2.69
2017-11-20T06:35:59.188Z,2.69
2017-11-20T06:36:59.082Z,2.76
2017-11-20T06:37:59.341Z,2.85
2017-11-20T06:38:59.316Z,2.88
2017-11-20T06:39:58.791Z,2.82
2017-11-20T06:40:59.296Z,2.98
2017-11-20T06:41:59.029Z,2.97
2017-11-20T06:42:59.280Z,3.01
2017-11-20T06:43:59.268Z,3.06
2017-11-20T06:44:59.006Z,3.08
2017-11-20T06:45:58.992Z,3.03
2017-11-20T06:46:59.242Z,3.03
2017-11-20T06:47:59.225Z,3.05
2017-11-20T06:48:59.215Z,3.11
2017-11-20T06:49:58.944Z,3.15
2017-11-20T06:50:58.932Z,3.06
2017-11-20T06:51:58.925Z,2.94
2017-11-20T06:52:59.174Z,2.94
2017-11-20T06:53:59.157Z,3.03
2017-11-20T06:54:58.891Z,3
2017-11-20T06:55:58.892Z,2.97
2017-11-20T06:56:58.870Z,3.03
2017-11-20T06:57:59.116Z,3.08
2017-11-20T06:58:58.863Z,3.05
2017-11-20T06:59:58.863Z,3.13
2017-11-20T07:00:58.827Z,3.13
2017-11-20T07:01:58.814Z,3.11
2017-11-20T07:02:58.810Z,3.26
2017-11-20T07:03:59.054Z,3.19
2017-11-20T07:04:58.792Z,3.33
2017-11-20T07:05:59.035Z,3.3
2017-11-20T07:06:59.020Z,3.36
2017-11-20T07:07:58.499Z,3.29
2017-11-20T07:08:58.843Z,3.29
2017-11-20T07:09:58.741Z,3.3
2017-11-20T07:10:58.990Z,3.33
2017-11-20T07:11:58.710Z,3.3
2017-11-20T07:12:58.443Z,3.27
2017-11-20T07:13:58.695Z,3.31
2017-11-20T07:14:58.941Z,3.33
2017-11-20T07:15:58.931Z,3.3
2017-11-20T07:16:58.657Z,3.3
2017-11-20T07:17:58.905Z,3.37
2017-11-20T07:18:58.639Z,3.3
2017-11-20T07:19:58.369Z,3.4
2017-11-20T07:20:58.618Z,3.4
2017-11-20T07:21:58.604Z,3.29
2017-11-20T07:22:58.952Z,3.26
2017-11-20T07:23:58.600Z,3.29
2017-11-20T07:24:58.576Z,3.29
2017-11-20T07:25:58.821Z,3.31
2017-11-20T07:26:58.833Z,3.36
2017-11-20T07:27:58.803Z,3.36
2017-11-20T07:28:58.798Z,3.36
2017-11-20T07:29:58.522Z,3.34
2017-11-20T07:30:58.255Z,3.3
2017-11-20T07:31:58.500Z,3.33
2017-11-20T07:32:58.490Z,3.4
2017-11-20T07:33:58.321Z,3.4
2017-11-20T07:34:58.470Z,3.37
2017-11-20T07:35:58.458Z,3.29
2017-11-20T07:36:58.706Z,3.36
2017-11-20T07:37:58.700Z,3.49
2017-11-20T07:38:58.428Z,3.45
2017-11-20T07:39:58.779Z,3.46
2017-11-20T07:40:58.668Z,3.48
2017-11-20T07:41:58.771Z,3.43
2017-11-20T07:42:58.129Z,3.49
2017-11-20T07:43:58.631Z,3.43
2017-11-20T07:44:58.648Z,3.52
2017-11-20T07:45:58.612Z,3.59
2017-11-20T07:46:58.340Z,3.53
2017-11-20T07:47:58.594Z,3.64
2017-11-20T07:48:58.321Z,3.66
2017-11-20T07:49:58.581Z,3.67
2017-11-20T07:50:58.045Z,3.61
2017-11-20T07:51:58.547Z,3.64
2017-11-20T07:52:58.545Z,3.64
2017-11-20T07:53:58.372Z,3.67
2017-11-20T07:54:58.362Z,3.61
2017-11-20T07:55:58.603Z,3.64
2017-11-20T07:56:58.250Z,3.64
2017-11-20T07:57:58.485Z,3.63
2017-11-20T07:58:58.222Z,3.67
2017-11-20T07:59:57.949Z,3.71
2017-11-20T08:00:58.197Z,3.73
2017-11-20T08:01:58.448Z,3.74
2017-11-20T08:02:58.440Z,3.74
2017-11-20T08:03:58.416Z,3.71
2017-11-20T08:04:58.161Z,3.74
2017-11-20T08:05:58.142Z,3.76
2017-11-20T08:06:58.391Z,3.78
2017-11-20T08:07:58.384Z,3.81
2017-11-20T08:08:58.311Z,3.73
2017-11-20T08:09:58.098Z,3.84
2017-11-20T08:10:58.350Z,3.73
2017-11-20T08:11:57.822Z,3.74
2017-11-20T08:12:57.814Z,3.76
2017-11-20T08:13:58.056Z,3.84
2017-11-20T08:14:58.050Z,3.89
2017-11-20T08:15:58.300Z,3.85
2017-11-20T08:16:58.038Z,3.84
2017-11-20T08:17:58.282Z,3.84
2017-11-20T08:18:58.271Z,3.73
2017-11-20T08:19:58.259Z,3.78
2017-11-20T08:20:57.728Z,3.81
2017-11-20T08:21:57.977Z,3.88
2017-11-20T08:22:57.975Z,3.78
2017-11-20T08:23:58.217Z,3.77
2017-11-20T08:24:57.960Z,3.92
2017-11-20T08:25:57.936Z,3.88
2017-11-20T08:26:58.177Z,3.91
2017-11-20T08:27:58.171Z,3.94
2017-11-20T08:28:57.907Z,3.92
2017-11-20T08:29:58.160Z,4.04
2017-11-20T08:30:57.726Z,3.95
2017-11-20T08:31:58.134Z,3.99
2017-11-20T08:32:57.860Z,4.02
2017-11-20T08:33:57.850Z,3.99
2017-11-20T08:34:58.098Z,3.99
2017-11-20T08:35:58.155Z,4.09
2017-11-20T08:36:58.077Z,4.07
2017-11-20T08:37:58.063Z,4.06
2017-11-20T08:38:58.053Z,4.06
2017-11-20T08:39:57.788Z,4.07
2017-11-20T08:40:57.874Z,4.04
2017-11-20T08:41:58.022Z,4.04
2017-11-20T08:42:58.014Z,4.07
2017-11-20T08:43:57.747Z,4.1
2017-11-20T08:44:57.737Z,4.1
2017-11-20T08:45:57.824Z,4.18
2017-11-20T08:46:57.716Z,4.2
2017-11-20T08:47:57.801Z,4.25
2017-11-20T08:48:57.952Z,4.18
2017-11-20T08:49:57.946Z,4.18
2017-11-20T08:50:57.673Z,4.3
2017-11-20T08:51:57.925Z,4.21
2017-11-20T08:52:57.917Z,4.28
2017-11-20T08:53:57.896Z,4.21
2017-11-20T08:54:57.376Z,4.39
2017-11-20T08:55:57.621Z,4.4
2017-11-20T08:56:57.864Z,4.4
2017-11-20T08:57:57.600Z,4.36
2017-11-20T08:58:57.590Z,4.4
2017-11-20T08:59:57.834Z,4.43
2017-11-20T09:00:57.925Z,4.42
2017-11-20T09:01:57.560Z,4.39
2017-11-20T09:02:57.813Z,4.31
2017-11-20T09:03:57.279Z,4.34
2017-11-20T09:04:57.533Z,4.4
2017-11-20T09:05:57.516Z,4.48
2017-11-20T09:06:57.502Z,4.45
2017-11-20T09:07:57.753Z,4.53
2017-11-20T09:08:57.753Z,4.52
2017-11-20T09:09:57.746Z,4.48
2017-11-20T09:10:57.463Z,4.48
2017-11-20T09:11:57.554Z,4.36
2017-11-20T09:12:57.698Z,4.36
2017-11-20T09:13:57.687Z,4.32
2017-11-20T09:14:57.433Z,4.32
2017-11-20T09:15:57.156Z,4.28
2017-11-20T09:16:57.402Z,4.24
2017-11-20T09:17:57.646Z,4.21
2017-11-20T09:18:57.642Z,4.21
2017-11-20T09:19:57.644Z,4.14
2017-11-20T09:20:57.357Z,4.14
2017-11-20T09:21:57.094Z,4.18
2017-11-20T09:22:57.593Z,4.2
2017-11-20T09:23:57.427Z,4.3
2017-11-20T09:24:57.317Z,4.22
2017-11-20T09:25:57.565Z,4.38
2017-11-20T09:26:57.039Z,4.4
2017-11-20T09:27:57.285Z,4.36
2017-11-20T09:28:57.274Z,4.36
2017-11-20T09:29:57.279Z,4.38
2017-11-20T09:30:57.000Z,4.43
2017-11-20T09:31:57.364Z,4.48
2017-11-20T09:32:57.490Z,4.45
2017-11-20T09:33:57.495Z,4.52
2017-11-20T09:34:57.472Z,4.48
2017-11-20T09:35:56.948Z,4.57
2017-11-20T09:36:57.547Z,4.57
2017-11-20T09:37:57.181Z,4.58
2017-11-20T09:38:57.170Z,4.63
2017-11-20T09:39:56.904Z,4.56
2017-11-20T09:40:57.151Z,4.74
2017-11-20T09:41:57.247Z,4.76
2017-11-20T09:42:57.133Z,4.66
2017-11-20T09:43:57.389Z,4.68
2017-11-20T09:44:57.125Z,4.68
2017-11-20T09:45:56.843Z,4.68
2017-11-20T09:46:57.089Z,4.76
2017-11-20T09:47:57.342Z,4.79
2017-11-20T09:48:57.174Z,4.84
2017-11-20T09:49:57.058Z,4.79
2017-11-20T09:50:57.309Z,4.71
2017-11-20T09:51:57.040Z,4.82
2017-11-20T09:52:56.775Z,4.78
2017-11-20T09:53:57.282Z,4.79
2017-11-20T09:54:57.264Z,4.84
2017-11-20T09:55:57.256Z,4.84
2017-11-20T09:56:57.005Z,4.9
2017-11-20T09:57:56.973Z,4.86
2017-11-20T09:58:56.811Z,4.98
2017-11-20T09:59:57.208Z,4.86
2017-11-20T10:00:56.687Z,5
2017-11-20T10:01:56.677Z,4.98
2017-11-20T10:02:57.190Z,4.9
2017-11-20T10:03:56.656Z,4.97
2017-11-20T10:04:57.002Z,4.9
2017-11-20T10:05:56.997Z,4.97
2017-11-20T10:06:56.884Z,4.92
2017-11-20T10:07:56.969Z,4.98
2017-11-20T10:08:57.122Z,5.01
2017-11-20T10:09:57.124Z,5.01
2017-11-20T10:10:56.841Z,5.01
2017-11-20T10:11:57.086Z,4.9
2017-11-20T10:12:57.177Z,5.01
2017-11-20T10:13:56.818Z,4.95
2017-11-20T10:14:57.055Z,4.89
2017-11-20T10:15:56.788Z,4.98
2017-11-20T10:16:57.046Z,4.98
2017-11-20T10:17:56.768Z,5.02
2017-11-20T10:18:56.757Z,5.01
2017-11-20T10:19:57.007Z,5.08
2017-11-20T10:20:56.767Z,5.13
2017-11-20T10:21:56.727Z,5.13
2017-11-20T10:22:56.981Z,5.23
2017-11-20T10:23:56.707Z,5.25
2017-11-20T10:24:56.695Z,5.31
2017-11-20T10:25:56.428Z,5.33
2017-11-20T10:26:56.677Z,5.4
2017-11-20T10:27:56.509Z,5.4
2017-11-20T10:28:56.922Z,5.47
2017-11-20T10:29:56.646Z,5.41
2017-11-20T10:30:56.895Z,5.44
2017-11-20T10:31:56.880Z,5.52
2017-11-20T10:32:56.971Z,5.52
2017-11-20T10:33:56.611Z,5.55
2017-11-20T10:34:56.595Z,5.56
2017-11-20T10:35:56.587Z,5.44
2017-11-20T10:36:56.827Z,5.38
2017-11-20T10:37:56.569Z,5.38
2017-11-20T10:38:56.651Z,5.49
2017-11-20T10:39:56.817Z,5.55
2017-11-20T10:40:56.527Z,5.58
2017-11-20T10:41:56.783Z,5.51
2017-11-20T10:42:56.513Z,5.52
2017-11-20T10:43:56.775Z,5.51
2017-11-20T10:44:56.752Z,5.52
2017-11-20T10:45:56.477Z,5.52
2017-11-20T10:46:56.213Z,5.49
2017-11-20T10:47:56.452Z,5.51
2017-11-20T10:48:56.702Z,5.52
2017-11-20T10:49:56.693Z,5.51
2017-11-20T10:50:56.690Z,5.38
2017-11-20T10:51:56.157Z,5.44
2017-11-20T10:52:56.664Z,5.4
2017-11-20T10:53:56.663Z,5.55
2017-11-20T10:54:56.396Z,5.37
2017-11-20T10:55:56.115Z,5.43
2017-11-20T10:56:56.622Z,5.55
2017-11-20T10:57:56.355Z,5.52
2017-11-20T10:58:56.353Z,5.51
2017-11-20T10:59:56.594Z,5.44
2017-11-20T11:00:56.320Z,5.56
2017-11-20T11:01:56.570Z,5.52
2017-11-20T11:02:56.305Z,5.65
2017-11-20T11:03:56.302Z,5.67
2017-11-20T11:04:56.554Z,5.61
2017-11-20T11:05:56.631Z,5.7
2017-11-20T11:06:56.269Z,5.69
2017-11-20T11:07:56.535Z,5.73
2017-11-20T11:08:56.239Z,5.65
2017-11-20T11:09:56.230Z,5.76
2017-11-20T11:10:56.480Z,5.76
2017-11-20T11:11:56.475Z,5.73
2017-11-20T11:12:56.453Z,5.87
2017-11-20T11:13:56.190Z,5.88
2017-11-20T11:14:56.449Z,5.87
2017-11-20T11:15:56.426Z,5.91
2017-11-20T11:16:56.162Z,5.88
2017-11-20T11:17:56.402Z,5.83
2017-11-20T11:18:56.137Z,5.79
2017-11-20T11:19:56.388Z,5.91
2017-11-20T11:20:56.120Z,5.87
2017-11-20T11:21:56.118Z,5.88
2017-11-20T11:22:56.357Z,5.87
2017-11-20T11:23:56.092Z,5.84
2017-11-20T11:24:56.335Z,5.9
2017-11-20T11:25:56.329Z,5.92
2017-11-20T11:26:56.318Z,5.95
2017-11-20T11:27:55.790Z,5.88
2017-11-20T11:28:56.310Z,5.91
2017-11-20T11:29:55.774Z,5.9
2017-11-20T11:30:56.028Z,5.81
2017-11-20T11:31:56.261Z,5.87
2017-11-20T11:32:55.998Z,5.79
2017-11-20T11:33:56.243Z,5.76
2017-11-20T11:34:56.233Z,5.83
2017-11-20T11:35:56.333Z,5.76
2017-11-20T11:36:56.212Z,5.72
2017-11-20T11:37:56.212Z,5.79
2017-11-20T11:38:56.209Z,5.77
2017-11-20T11:39:56.188Z,5.8
2017-11-20T11:40:55.923Z,5.8
2017-11-20T11:41:56.163Z,5.92
2017-11-20T11:42:56.151Z,5.88
2017-11-20T11:43:56.146Z,5.84
2017-11-20T11:44:56.166Z,5.92
2017-11-20T11:45:56.140Z,5.95
2017-11-20T11:46:55.889Z,5.95
2017-11-20T11:47:56.101Z,5.98
2017-11-20T11:48:56.113Z,5.91
2017-11-20T11:49:56.081Z,5.98
2017-11-20T11:50:56.070Z,5.9
2017-11-20T11:51:55.804Z,5.98
2017-11-20T11:52:55.815Z,5.97
2017-11-20T11:53:56.144Z,5.97
2017-11-20T11:54:55.771Z,5.92
2017-11-20T11:55:55.763Z,5.91
2017-11-20T11:56:55.758Z,5.92
2017-11-20T11:57:55.841Z,5.97
2017-11-20T11:58:55.732Z,5.99
2017-11-20T11:59:55.725Z,5.91
2017-11-20T12:00:55.713Z,5.94
2017-11-20T12:01:55.703Z,5.95
2017-11-20T12:02:55.695Z,5.88
2017-11-20T12:03:55.933Z,5.99
2017-11-20T12:04:55.928Z,5.91
2017-11-20T12:05:55.670Z,6.05
2017-11-20T12:06:55.911Z,6.13
2017-11-20T12:07:55.641Z,6.12
2017-11-20T12:08:55.890Z,6.13
2017-11-20T12:09:55.901Z,6.09
2017-11-20T12:10:55.608Z,6.12
2017-11-20T12:11:55.699Z,6.1
2017-11-20T12:12:55.586Z,6.16
2017-11-20T12:13:55.849Z,6.2
2017-11-20T12:14:55.593Z,6.29
2017-11-20T12:15:55.556Z,6.28
2017-11-20T12:16:55.804Z,6.31
2017-11-20T12:17:55.798Z,6.26
2017-11-20T12:18:55.800Z,6.31
2017-11-20T12:19:55.891Z,6.32
2017-11-20T12:20:55.512Z,6.41
2017-11-20T12:21:55.602Z,6.35
2017-11-20T12:22:55.754Z,6.36
2017-11-20T12:23:55.838Z,6.32
2017-11-20T12:24:55.567Z,6.38
2017-11-20T12:25:55.199Z,6.41
2017-11-20T12:26:55.443Z,6.41
2017-11-20T12:27:55.691Z,6.46
2017-11-20T12:28:55.793Z,6.52
2017-11-20T12:29:55.418Z,6.52
2017-11-20T12:30:55.404Z,6.52
2017-11-20T12:31:55.650Z,6.54
2017-11-20T12:32:55.649Z,6.49
2017-11-20T12:33:55.375Z,6.49
2017-11-20T12:34:55.365Z,6.47
2017-11-20T12:35:55.453Z,6.52
2017-11-20T12:36:55.090Z,6.59
2017-11-20T12:37:55.333Z,6.54
2017-11-20T12:38:55.323Z,6.47
2017-11-20T12:39:55.603Z,6.36
2017-11-20T12:40:55.567Z,6.35
2017-11-20T12:41:55.552Z,6.36
2017-11-20T12:42:55.282Z,6.39
2017-11-20T12:43:55.276Z,6.46
2017-11-20T12:44:55.544Z,6.36
2017-11-20T12:45:55.509Z,6.34
2017-11-20T12:46:55.252Z,6.35
2017-11-20T12:47:55.237Z,6.36
2017-11-20T12:48:55.221Z,6.41
2017-11-20T12:49:55.235Z,6.39
2017-11-20T12:50:55.207Z,6.35
2017-11-20T12:51:55.451Z,6.35
2017-11-20T12:52:55.184Z,6.35
2017-11-20T12:53:55.437Z,6.36
2017-11-20T12:54:55.163Z,6.31
2017-11-20T12:55:55.413Z,6.34
2017-11-20T12:56:54.890Z,6.29
2017-11-20T12:57:55.134Z,6.28
2017-11-20T12:58:55.388Z,6.41
2017-11-20T12:59:55.370Z,6.35
2017-11-20T13:00:55.374Z,6.36
2017-11-20T13:01:55.357Z,6.35
2017-11-20T13:02:55.340Z,6.36
2017-11-20T13:03:55.075Z,6.39
2017-11-20T13:04:55.364Z,6.46
2017-11-20T13:05:55.316Z,6.52
2017-11-20T13:06:55.304Z,6.36
2017-11-20T13:07:55.321Z,6.53
2017-11-20T13:08:55.025Z,6.49
2017-11-20T13:09:55.271Z,6.59
2017-11-20T13:10:55.003Z,6.62
2017-11-20T13:11:55.255Z,6.6
2017-11-20T13:12:54.990Z,6.64
2017-11-20T13:13:55.232Z,6.59
2017-11-20T13:14:55.220Z,6.6
2017-11-20T13:15:55.218Z,6.62
2017-11-20T13:16:54.952Z,6.65
2017-11-20T13:17:54.934Z,6.59
2017-11-20T13:18:54.926Z,6.6
2017-11-20T13:19:55.169Z,6.7
2017-11-20T13:20:55.170Z,6.57
2017-11-20T13:21:55.254Z,6.62